Time;durP1;ratioP1;P1;durP2;ratioP2;P2;SDS_P1;SDS_P2;PMS_P1;PMS_P2;Temp;Humidity;BMP_temperature;BMP_pressure;BME280_temperature;BME280_humidity;BME280_pressure;Samples;Min_cycle;Max_cycle;Signal;HPM_P1;HPM_P2
2022/09/13 00:01:32;;;;;;;1.43;0.90;;;19.20;97.20;;;;;;5057463;28;20481;-73
2022/09/13 00:04:00;;;;;;;1.40;0.90;;;19.20;97.30;;;;;;5062501;28;20979;-73
2022/09/13 00:06:28;;;;;;;1.47;0.90;;;19.20;97.70;;;;;;5048195;28;21012;-74
2022/09/13 00:08:55;;;;;;;1.43;0.90;;;19.10;97.60;;;;;;5067235;28;20553;-74
2022/09/13 00:11:27;;;;;;;1.50;1.00;;;19.10;97.80;;;;;;5057032;28;20469;-73
2022/09/13 00:13:57;;;;;;;1.43;0.90;;;19.10;97.70;;;;;;5071299;28;20561;-73
2022/09/13 00:16:27;;;;;;;1.43;0.90;;;19.10;97.90;;;;;;5056760;28;20543;-75
2022/09/13 00:18:55;;;;;;;1.47;0.90;;;19.00;97.70;;;;;;5067769;28;20481;-75
2022/09/13 00:21:29;;;;;;;1.47;1.00;;;19.00;98.20;;;;;;5054246;28;20565;-74
2022/09/13 00:23:57;;;;;;;1.43;0.90;;;19.00;98.20;;;;;;5061796;28;20488;-74
2022/09/13 00:26:26;;;;;;;1.47;0.90;;;18.90;98.20;;;;;;5054746;28;20485;-74
2022/09/13 00:28:55;;;;;;;1.40;0.90;;;18.90;98.20;;;;;;5058443;28;20491;-76
2022/09/13 00:31:25;;;;;;;1.47;0.90;;;18.90;98.20;;;;;;5048855;28;20485;-74
2022/09/13 00:33:54;;;;;;;1.50;0.90;;;18.90;98.20;;;;;;5064058;28;20494;-73
2022/09/13 00:36:22;;;;;;;1.43;1.00;;;18.80;98.20;;;;;;5055100;28;20474;-73
2022/09/13 00:38:51;;;;;;;1.50;0.90;;;18.80;98.20;;;;;;5073352;28;20458;-74
2022/09/13 00:41:20;;;;;;;1.50;1.00;;;18.80;98.20;;;;;;5057373;28;20473;-74
2022/09/13 00:43:59;;;;;;;1.50;0.90;;;18.80;98.20;;;;;;5073442;28;20565;-74
2022/09/13 00:46:34;;;;;;;1.50;1.00;;;18.80;98.20;;;;;;5054181;28;20541;-73
2022/09/13 00:49:09;;;;;;;1.50;0.90;;;18.80;98.20;;;;;;5057461;28;20466;-74
2022/09/13 00:51:38;;;;;;;1.50;0.90;;;18.80;98.20;;;;;;5055830;28;20473;-74
2022/09/13 00:54:08;;;;;;;1.50;1.00;;;18.80;98.20;;;;;;5062661;28;21045;-74
2022/09/13 00:56:42;;;;;;;1.50;1.00;;;18.80;98.20;;;;;;5059843;28;20481;-74
2022/09/13 00:59:15;;;;;;;1.50;1.20;;;18.80;98.20;;;;;;5074401;28;20450;-74
2022/09/13 01:01:50;;;;;;;1.40;0.90;;;18.80;98.20;;;;;;5061049;28;20478;-74
2022/09/13 01:04:20;;;;;;;1.47;0.90;;;18.80;98.20;;;;;;5068903;28;20487;-74
2022/09/13 01:06:51;;;;;;;1.50;0.90;;;18.80;98.20;;;;;;5064222;28;20481;-74
2022/09/13 01:09:20;;;;;;;1.40;0.90;;;18.80;98.20;;;;;;5073694;28;20470;-74
2022/09/13 01:12:07;;;;;;;1.40;0.90;;;18.70;98.20;;;;;;5044365;28;20486;-74
2022/09/13 01:14:35;;;;;;;1.50;0.97;;;18.70;98.20;;;;;;5054300;28;20486;-74
2022/09/13 01:17:03;;;;;;;1.50;0.90;;;18.70;98.20;;;;;;5061094;28;20481;-75
2022/09/13 01:19:30;;;;;;;1.43;0.90;;;18.70;98.20;;;;;;5048207;28;20459;-75
2022/09/13 01:22:33;;;;;;;1.50;0.90;;;18.70;98.20;;;;;;5053131;28;20481;-76
2022/09/13 01:25:34;;;;;;;1.40;0.90;;;18.70;98.20;;;;;;5051372;28;20469;-75
2022/09/13 01:28:37;;;;;;;1.43;0.90;;;18.70;98.20;;;;;;5060844;28;20488;-74
2022/09/13 01:31:43;;;;;;;1.50;1.20;;;18.70;98.20;;;;;;5050070;28;20462;-75
2022/09/13 01:34:23;;;;;;;1.43;0.90;;;18.60;98.20;;;;;;5059849;28;20470;-75
2022/09/13 01:40:18;;;;;;;1.50;0.90;;;18.60;98.20;;;;;;5014125;28;20468;-76
2022/09/13 01:46:10;;;;;;;1.47;0.90;;;18.60;98.20;;;;;;5048449;28;20512;-75
2022/09/13 01:49:01;;;;;;;1.50;1.00;;;18.50;98.20;;;;;;5065154;28;20479;-75
2022/09/13 01:51:50;;;;;;;;;;;;;;;;;;;;;
2022/09/13 01:54:37;;;;;;;1.50;1.00;;;18.50;98.20;;;;;;5061677;28;20825;-74
2022/09/13 01:57:19;;;;;;;1.50;1.00;;;18.50;98.10;;;;;;5047913;28;20481;-75
2022/09/13 02:00:02;;;;;;;1.40;0.90;;;18.50;98.20;;;;;;5057890;28;20454;-75
2022/09/13 02:02:39;;;;;;;1.43;0.90;;;18.50;98.20;;;;;;5054743;28;20559;-74
2022/09/13 02:05:23;;;;;;;1.43;0.90;;;18.50;98.20;;;;;;5058697;28;20480;-74
2022/09/13 02:08:21;;;;;;;1.50;0.90;;;18.50;98.20;;;;;;5055577;28;20473;-74
2022/09/13 02:10:55;;;;;;;1.47;0.90;;;18.40;98.20;;;;;;5045626;28;20479;-72
2022/09/13 02:13:30;;;;;;;1.50;1.00;;;18.40;98.20;;;;;;5070433;28;20608;-76
2022/09/13 02:16:09;;;;;;;2.07;1.87;;;18.40;98.20;;;;;;5050172;28;20481;-74
2022/09/13 02:18:54;;;;;;;1.47;0.90;;;18.40;98.20;;;;;;5064283;28;20461;-76
2022/09/13 02:21:27;;;;;;;1.50;0.90;;;18.40;98.20;;;;;;5046112;28;20460;-74
2022/09/13 02:24:16;;;;;;;1.47;0.90;;;18.40;98.20;;;;;;5063616;28;20482;-76
2022/09/13 02:26:54;;;;;;;1.50;0.90;;;18.40;98.20;;;;;;5054070;28;20485;-75
2022/09/13 02:29:34;;;;;;;1.50;1.10;;;18.30;98.20;;;;;;5058173;28;20459;-75
2022/09/13 02:32:12;;;;;;;1.43;0.90;;;18.30;98.20;;;;;;5053401;28;20512;-74
2022/09/13 02:34:43;;;;;;;1.50;1.00;;;18.30;98.20;;;;;;5062033;28;20555;-75
2022/09/13 02:37:14;;;;;;;1.47;0.90;;;18.30;98.20;;;;;;5058005;28;20474;-75
2022/09/13 02:40:16;;;;;;;1.47;0.90;;;18.30;98.20;;;;;;5048429;28;20455;-75
2022/09/13 02:43:06;;;;;;;1.50;1.00;;;18.30;98.20;;;;;;5016221;28;20475;-75
2022/09/13 02:46:08;;;;;;;1.47;0.90;;;18.40;98.20;;;;;;5061557;28;20454;-76
2022/09/13 02:52:00;;;;;;;1.43;0.90;;;18.50;98.20;;;;;;5036528;28;20507;-76
2022/09/13 02:54:46;;;;;;;1.53;1.07;;;18.50;98.20;;;;;;5069878;28;20482;-76
2022/09/13 02:57:27;;;;;;;1.43;0.90;;;18.50;98.20;;;;;;5051331;28;20561;-75
2022/09/13 02:59:54;;;;;;;1.43;0.90;;;18.60;98.20;;;;;;5065392;28;21187;-75
2022/09/13 03:02:36;;;;;;;1.50;1.00;;;18.60;98.20;;;;;;5057912;28;20485;-76
2022/09/13 03:05:15;;;;;;;1.50;0.90;;;18.60;98.20;;;;;;5066402;28;20485;-75
2022/09/13 03:07:46;;;;;;;1.50;0.90;;;18.60;98.20;;;;;;5066936;28;20477;-74
2022/09/13 03:10:16;;;;;;;1.50;0.90;;;18.60;98.20;;;;;;5057442;28;20454;-75
2022/09/13 03:17:02;;;;;;;1.47;0.90;;;18.70;98.20;;;;;;4975405;28;20484;-75
2022/09/13 03:19:54;;;;;;;1.50;0.90;;;18.70;98.20;;;;;;4991551;28;20452;-75
2022/09/13 03:23:09;;;;;;;1.43;0.90;;;18.60;98.20;;;;;;5066208;28;20481;-75
2022/09/13 03:29:30;;;;;;;1.50;0.90;;;18.60;98.20;;;;;;5048612;28;20535;-75
2022/09/13 03:35:41;;;;;;;1.50;1.10;;;18.60;98.20;;;;;;5071553;28;20492;-74
2022/09/13 03:38:36;;;;;;;1.40;0.90;;;18.70;98.20;;;;;;5007220;28;20489;-75
2022/09/13 03:41:43;;;;;;;1.43;0.90;;;18.70;98.20;;;;;;5063124;28;20471;-75
2022/09/13 03:44:46;;;;;;;1.43;0.90;;;18.70;98.20;;;;;;5011798;28;20477;-76
2022/09/13 03:50:39;;;;;;;1.47;0.90;;;18.70;98.20;;;;;;5073300;28;20461;-74
2022/09/13 03:56:05;;;;;;;1.47;0.90;;;18.60;98.20;;;;;;5069507;28;20462;-75
2022/09/13 03:58:40;;;;;;;1.47;0.90;;;18.50;98.20;;;;;;5070186;28;20524;-76
2022/09/13 04:01:09;;;;;;;1.47;0.90;;;18.50;98.20;;;;;;5070492;28;20543;-76
2022/09/13 04:04:08;;;;;;;1.47;0.90;;;18.50;98.20;;;;;;5076043;28;20485;-76
2022/09/13 04:06:39;;;;;;;1.40;0.90;;;18.50;98.20;;;;;;5067142;28;21021;-76
2022/09/13 04:09:23;;;;;;;1.47;0.90;;;18.50;98.20;;;;;;5076977;28;20490;-75
2022/09/13 04:19:03;;;;;;;1.50;0.90;;;18.40;98.20;;;;;;5040980;28;20493;-76
2022/09/13 04:21:41;;;;;;;1.50;0.90;;;18.40;98.20;;;;;;5003990;28;20486;-75
2022/09/13 04:24:56;;;;;;;;;;;;;;;;;;;;;
2022/09/13 04:27:46;;;;;;;1.50;0.90;;;18.30;98.20;;;;;;5069180;28;20508;-75
2022/09/13 04:33:08;;;;;;;1.47;0.93;;;18.30;98.20;;;;;;5061902;28;20542;-74
2022/09/13 04:35:42;;;;;;;1.43;0.90;;;18.30;98.20;;;;;;5076750;28;20560;-75
2022/09/13 04:38:18;;;;;;;1.50;1.00;;;18.30;98.20;;;;;;5063504;28;20465;-75
2022/09/13 04:40:57;;;;;;;1.50;0.90;;;18.30;98.20;;;;;;5082098;28;20508;-74
2022/09/13 04:43:26;;;;;;;1.47;1.00;;;18.30;98.20;;;;;;5055748;28;20477;-76
2022/09/13 04:46:27;;;;;;;1.47;0.90;;;18.30;98.20;;;;;;5070357;28;20465;-74
2022/09/13 04:49:05;;;;;;;1.47;1.00;;;18.30;98.20;;;;;;5081787;28;20456;-77
2022/09/13 04:51:55;;;;;;;1.40;0.90;;;18.40;98.20;;;;;;5074790;28;20504;-75
2022/09/13 04:55:00;;;;;;;1.50;1.00;;;18.30;98.20;;;;;;5072637;28;20484;-75
2022/09/13 04:58:06;;;;;;;;;;;;;;;;;;;;;
2022/09/13 05:00:58;;;;;;;;;;;;;;;;;;;;;
2022/09/13 05:03:52;;;;;;;1.50;0.97;;;18.40;98.20;;;;;;5068811;28;20480;-76
2022/09/13 05:06:35;;;;;;;;;;;;;;;;;;;;;
2022/09/13 05:09:22;;;;;;;1.47;0.90;;;18.30;98.20;;;;;;5084460;28;20532;-76
2022/09/13 05:12:18;;;;;;;1.50;0.90;;;18.30;98.20;;;;;;5071228;28;20565;-75
2022/09/13 05:15:00;;;;;;;1.50;0.90;;;18.40;98.20;;;;;;5054237;28;20505;-76
2022/09/13 05:17:30;;;;;;;1.47;0.90;;;18.40;98.20;;;;;;5072731;28;21053;-75
2022/09/13 05:23:55;;;;;;;1.43;0.90;;;18.20;98.20;;;;;;5022421;28;20527;-77
2022/09/13 05:26:57;;;;;;;1.43;0.90;;;18.10;98.20;;;;;;5058191;28;20484;-76
2022/09/13 05:30:17;;;;;;;1.47;0.90;;;18.10;98.20;;;;;;5063666;28;20488;-77
2022/09/13 05:33:05;;;;;;;;;;;;;;;;;;;;;
2022/09/13 05:35:42;;;;;;;1.47;0.90;;;18.10;98.20;;;;;;5050807;28;20537;-75
2022/09/13 05:41:37;;;;;;;1.47;0.90;;;18.10;98.20;;;;;;5040528;28;21593;-76
2022/09/13 05:50:19;;;;;;;1.50;0.90;;;18.10;98.20;;;;;;5060458;28;20466;-76
2022/09/13 05:52:57;;;;;;;1.50;0.90;;;18.20;98.20;;;;;;5055340;28;20481;-76
2022/09/13 05:55:49;;;;;;;1.43;0.90;;;18.20;98.20;;;;;;5057268;28;20478;-75
2022/09/13 05:58:31;;;;;;;1.43;0.90;;;18.20;98.20;;;;;;5046549;28;20474;-76
2022/09/13 06:01:31;;;;;;;1.70;1.23;;;18.20;98.20;;;;;;5047676;28;20462;-75
2022/09/13 06:07:15;;;;;;;1.43;0.90;;;18.30;98.20;;;;;;5057188;28;20473;-76
2022/09/13 06:09:44;;;;;;;1.50;0.90;;;18.30;98.20;;;;;;5058460;28;20897;-76
2022/09/13 06:14:54;;;;;;;1.50;1.00;;;18.50;98.20;;;;;;5049783;28;20508;-75
2022/09/13 06:17:34;;;;;;;1.50;0.90;;;18.50;98.20;;;;;;5053416;28;20483;-75
2022/09/13 06:20:22;;;;;;;1.50;1.10;;;18.60;98.20;;;;;;5055654;28;20450;-75
2022/09/13 06:22:53;;;;;;;1.43;0.90;;;18.70;98.20;;;;;;5063409;28;20547;-76
2022/09/13 06:25:21;;;;;;;1.50;0.90;;;18.80;98.20;;;;;;5058202;28;20505;-74
2022/09/13 06:27:48;;;;;;;1.43;0.90;;;18.90;98.20;;;;;;5048622;28;20469;-73
2022/09/13 06:30:16;;;;;;;1.50;0.90;;;18.90;98.20;;;;;;5058241;28;20535;-74
2022/09/13 06:32:44;;;;;;;1.47;0.90;;;19.00;98.20;;;;;;5056840;28;20489;-74
2022/09/13 06:35:13;;;;;;;1.50;0.90;;;19.00;98.20;;;;;;5053887;28;20505;-74
2022/09/13 06:37:41;;;;;;;1.40;0.90;;;19.10;98.20;;;;;;5056960;28;20504;-75
2022/09/13 06:40:09;;;;;;;1.50;0.90;;;19.20;98.20;;;;;;5057379;28;20510;-75
2022/09/13 06:42:38;;;;;;;1.50;0.90;;;19.20;98.20;;;;;;5060162;28;20477;-75
2022/09/13 06:47:56;;;;;;;1.50;0.90;;;19.20;98.20;;;;;;5059778;28;21082;-75
2022/09/13 06:50:25;;;;;;;1.50;0.90;;;19.20;98.20;;;;;;5058895;28;20454;-76
2022/09/13 06:52:53;;;;;;;1.50;0.93;;;19.20;98.20;;;;;;5043981;28;20498;-74
2022/09/13 06:55:20;;;;;;;1.50;0.90;;;19.20;98.20;;;;;;5056365;28;20525;-74
2022/09/13 06:57:48;;;;;;;1.50;0.90;;;19.30;98.20;;;;;;5062185;28;20473;-75
2022/09/13 07:03:13;;;;;;;1.50;1.00;;;19.30;98.20;;;;;;5052983;28;20487;-75
2022/09/13 07:05:42;;;;;;;1.50;1.00;;;19.40;98.20;;;;;;5055214;28;20502;-75
2022/09/13 07:08:10;;;;;;;1.50;0.90;;;19.40;98.20;;;;;;5060894;28;20558;-74
2022/09/13 07:13:52;;;;;;;1.50;0.90;;;19.50;98.20;;;;;;5046536;28;20857;-74
2022/09/13 07:16:22;;;;;;;1.50;0.90;;;19.60;98.20;;;;;;5051076;28;20477;-75
2022/09/13 07:18:53;;;;;;;1.50;1.00;;;19.70;98.20;;;;;;5065231;28;20536;-75
2022/09/13 07:21:24;;;;;;;1.50;0.90;;;19.70;98.20;;;;;;5050897;28;20484;-74
2022/09/13 07:23:59;;;;;;;1.50;0.90;;;19.80;98.20;;;;;;5071803;28;20577;-75
2022/09/13 07:26:30;;;;;;;1.50;0.90;;;19.80;98.20;;;;;;5053504;28;20474;-75
2022/09/13 07:29:07;;;;;;;1.50;0.90;;;19.90;98.20;;;;;;5070654;28;20491;-75
2022/09/13 07:31:38;;;;;;;1.50;0.90;;;20.00;98.20;;;;;;5057773;28;20487;-75
2022/09/13 07:34:08;;;;;;;1.50;0.90;;;20.10;98.20;;;;;;5070185;28;20497;-74
2022/09/13 07:36:36;;;;;;;1.50;0.90;;;20.10;98.20;;;;;;5056546;28;20483;-74
2022/09/13 07:39:05;;;;;;;1.67;1.30;;;20.30;98.20;;;;;;5062229;28;20489;-75
2022/09/13 07:41:34;;;;;;;1.50;1.10;;;20.40;98.20;;;;;;5057645;28;20485;-74
2022/09/13 07:44:06;;;;;;;1.70;1.20;;;20.50;98.20;;;;;;5068640;28;20474;-74
2022/09/13 07:46:43;;;;;;;1.50;0.90;;;20.50;98.20;;;;;;5056189;28;20512;-73
2022/09/13 07:49:12;;;;;;;1.50;0.90;;;20.60;98.20;;;;;;5070304;28;20459;-75
2022/09/13 07:51:54;;;;;;;1.50;0.90;;;20.70;98.20;;;;;;5054646;28;20493;-75
2022/09/13 07:54:22;;;;;;;1.50;0.90;;;20.80;98.20;;;;;;5060833;28;21015;-74
2022/09/13 07:57:29;;;;;;;1.50;0.90;;;20.90;98.20;;;;;;5054168;28;20505;-74
2022/09/13 08:00:24;;;;;;;1.50;0.90;;;21.00;98.20;;;;;;5059452;28;20486;-74
2022/09/13 08:02:53;;;;;;;1.50;0.90;;;21.20;98.20;;;;;;5046482;28;20482;-73
2022/09/13 08:05:21;;;;;;;1.50;0.90;;;21.30;97.50;;;;;;5054391;28;20516;-73
2022/09/13 08:10:51;;;;;;;1.50;1.00;;;21.60;97.90;;;;;;5047716;28;20489;-74
2022/09/13 08:13:19;;;;;;;1.50;0.90;;;21.70;95.80;;;;;;5071815;28;20490;-75
2022/09/13 08:15:48;;;;;;;1.50;0.90;;;21.80;94.20;;;;;;5058322;28;20458;-74
2022/09/13 08:18:17;;;;;;;1.50;0.90;;;21.90;93.80;;;;;;5065523;28;20545;-74
2022/09/13 08:20:45;;;;;;;1.50;0.90;;;22.00;93.70;;;;;;5060431;28;20545;-76
2022/09/13 08:23:14;;;;;;;1.47;0.90;;;22.10;93.00;;;;;;5064293;28;20481;-74
2022/09/13 08:25:42;;;;;;;1.50;0.90;;;22.30;91.50;;;;;;5052965;28;20483;-74
2022/09/13 08:28:17;;;;;;;1.50;0.90;;;22.40;90.40;;;;;;5061063;28;20588;-74
2022/09/13 08:30:44;;;;;;;1.50;0.90;;;22.60;91.30;;;;;;5059511;28;20465;-74
2022/09/13 08:33:15;;;;;;;1.50;0.90;;;22.70;90.10;;;;;;5045667;28;20482;-74
2022/09/13 08:35:51;;;;;;;1.50;0.90;;;22.70;90.80;;;;;;5058312;28;20463;-74
2022/09/13 08:38:19;;;;;;;1.47;0.90;;;22.80;92.60;;;;;;5048486;28;20513;-73
2022/09/13 08:41:00;;;;;;;1.50;0.90;;;22.90;93.70;;;;;;5059221;28;20477;-73
2022/09/13 08:43:46;;;;;;;1.50;0.90;;;23.00;94.20;;;;;;5044146;28;20486;-73
2022/09/13 08:46:24;;;;;;;1.50;0.90;;;23.10;93.00;;;;;;5049814;28;20465;-74
2022/09/13 08:48:56;;;;;;;1.50;0.90;;;23.20;92.60;;;;;;5057728;28;20481;-73
2022/09/13 08:51:31;;;;;;;1.50;0.80;;;23.30;90.90;;;;;;5047592;28;20517;-73
2022/09/13 08:54:01;;;;;;;1.50;0.90;;;23.40;89.20;;;;;;5060479;28;20475;-73
2022/09/13 08:56:50;;;;;;;1.50;0.90;;;23.60;89.10;;;;;;5051864;28;20870;-74
2022/09/13 08:59:31;;;;;;;1.50;0.90;;;23.80;88.60;;;;;;5062746;28;20560;-73
2022/09/13 09:02:22;;;;;;;1.50;0.90;;;24.00;88.30;;;;;;5044377;28;20479;-73
2022/09/13 09:04:57;;;;;;;1.50;0.90;;;24.20;88.50;;;;;;5056887;28;20483;-74
2022/09/13 09:07:28;;;;;;;1.50;0.90;;;24.40;88.60;;;;;;5055907;28;20492;-76
2022/09/13 09:10:02;;;;;;;1.47;0.90;;;24.60;87.00;;;;;;5055930;28;20474;-75
2022/09/13 09:12:38;;;;;;;1.50;0.90;;;24.80;87.90;;;;;;5051433;28;20511;-75
2022/09/13 09:15:15;;;;;;;1.50;0.90;;;24.90;85.50;;;;;;5054066;28;20930;-74
2022/09/13 09:17:56;;;;;;;1.50;0.90;;;25.00;85.60;;;;;;5063508;28;20584;-77
2022/09/13 09:20:32;;;;;;;1.50;0.80;;;25.10;85.50;;;;;;5058444;28;20496;-75
2022/09/13 09:23:03;;;;;;;1.47;0.90;;;25.20;85.70;;;;;;5054638;28;20473;-74
2022/09/13 09:25:35;;;;;;;1.50;0.80;;;25.30;86.10;;;;;;5054096;28;20829;-74
2022/09/13 09:28:13;;;;;;;1.47;0.90;;;25.50;85.70;;;;;;5058464;28;20466;-74
2022/09/13 09:30:46;;;;;;;1.50;0.90;;;25.80;85.00;;;;;;5055759;28;20465;-74
2022/09/13 09:33:34;;;;;;;1.50;0.90;;;25.90;84.80;;;;;;5046743;28;20466;-74
2022/09/13 09:42:20;;;;;;;1.50;0.87;;;26.40;82.20;;;;;;5001031;28;20473;-74
2022/09/13 09:44:52;;;;;;;1.50;0.90;;;26.50;81.60;;;;;;5053793;28;20803;-75
2022/09/13 09:47:25;;;;;;;1.50;0.80;;;26.70;82.60;;;;;;5054236;28;20472;-75
2022/09/13 09:50:11;;;;;;;1.50;0.90;;;26.80;81.50;;;;;;5055787;28;20877;-75
2022/09/13 09:52:44;;;;;;;1.47;0.80;;;26.90;82.10;;;;;;5056628;28;20480;-76
2022/09/13 09:55:21;;;;;;;1.47;0.80;;;27.00;80.60;;;;;;5055313;28;20987;-76
2022/09/13 09:57:54;;;;;;;1.50;0.80;;;27.10;80.70;;;;;;5059509;28;20518;-74
2022/09/13 10:00:23;;;;;;;1.50;0.80;;;27.10;79.90;;;;;;5057366;28;20553;-74
2022/09/13 10:02:54;;;;;;;1.60;1.13;;;27.20;82.40;;;;;;5059357;28;20477;-75
2022/09/13 10:05:25;;;;;;;1.50;0.80;;;27.30;81.10;;;;;;5052742;28;20849;-76
2022/09/13 10:07:58;;;;;;;1.50;0.90;;;27.40;81.30;;;;;;5058930;28;20490;-75
2022/09/13 10:10:36;;;;;;;1.50;0.80;;;27.60;80.50;;;;;;5056366;28;20480;-76
2022/09/13 10:13:07;;;;;;;1.47;0.80;;;27.70;80.10;;;;;;5054131;28;21208;-74
2022/09/13 10:15:35;;;;;;;1.47;0.90;;;27.80;79.20;;;;;;5052462;28;21050;-76
2022/09/13 10:18:15;;;;;;;1.50;0.80;;;27.80;78.30;;;;;;5055001;28;20517;-75
2022/09/13 10:21:06;;;;;;;1.47;0.80;;;28.00;80.50;;;;;;5054567;28;20454;-77
2022/09/13 10:23:34;;;;;;;1.47;0.80;;;28.20;79.00;;;;;;5047242;28;20486;-76
2022/09/13 10:26:17;;;;;;;1.50;0.80;;;28.30;78.70;;;;;;5043896;28;20462;-77
2022/09/13 10:28:57;;;;;;;1.50;0.90;;;28.40;78.70;;;;;;5064597;28;20516;-75
2022/09/13 10:31:30;;;;;;;1.47;0.80;;;28.50;77.70;;;;;;5050687;28;20585;-75
2022/09/13 10:34:04;;;;;;;1.50;0.80;;;28.60;76.90;;;;;;5062313;28;20476;-75
2022/09/13 10:36:33;;;;;;;1.50;0.80;;;28.70;76.60;;;;;;5037529;28;20895;-75
2022/09/13 10:39:02;;;;;;;1.50;0.90;;;28.80;76.60;;;;;;5051442;28;20962;-76
2022/09/13 10:41:33;;;;;;;1.43;0.80;;;28.90;76.80;;;;;;5037701;28;20877;-76
2022/09/13 10:44:07;;;;;;;1.50;0.80;;;29.00;76.80;;;;;;5052380;28;20485;-75
2022/09/13 10:46:41;;;;;;;1.47;0.80;;;29.20;77.20;;;;;;5050816;28;21038;-78
2022/09/13 10:49:43;;;;;;;1.50;0.80;;;29.20;76.40;;;;;;5068289;28;20500;-76
2022/09/13 10:52:33;;;;;;;1.50;1.00;;;29.20;75.80;;;;;;5055841;28;20520;-78
2022/09/13 10:55:33;;;;;;;1.43;0.80;;;29.20;75.50;;;;;;5058469;28;20473;-76
2022/09/13 10:58:34;;;;;;;1.47;0.80;;;29.20;75.60;;;;;;5048795;28;20500;-76
2022/09/13 11:04:44;;;;;;;1.40;0.80;;;29.00;76.10;;;;;;5036060;28;20512;-75
2022/09/13 11:07:41;;;;;;;1.47;0.80;;;28.80;76.00;;;;;;5053251;28;20481;-76
2022/09/13 11:13:44;;;;;;;1.47;0.80;;;28.70;77.20;;;;;;5041699;28;20508;-75
2022/09/13 11:16:27;;;;;;;1.43;0.80;;;28.70;76.80;;;;;;5051089;28;20476;-76
2022/09/13 11:19:29;;;;;;;1.43;0.80;;;28.70;76.80;;;;;;5059912;28;20576;-75
2022/09/13 11:22:26;;;;;;;1.40;0.80;;;28.70;77.70;;;;;;5047443;28;20571;-75
2022/09/13 11:25:18;;;;;;;1.40;0.80;;;28.70;76.00;;;;;;5061774;28;20481;-76
2022/09/13 11:28:08;;;;;;;1.47;0.87;;;28.70;77.20;;;;;;5061624;28;20473;-76
2022/09/13 11:33:46;;;;;;;1.40;0.80;;;28.90;76.30;;;;;;5043404;28;20486;-76
2022/09/13 11:36:29;;;;;;;1.47;0.80;;;28.90;76.30;;;;;;5053551;28;20480;-75
2022/09/13 11:42:24;;;;;;;1.47;0.80;;;29.10;74.30;;;;;;5037559;28;20471;-76
2022/09/13 11:45:16;;;;;;;1.47;0.90;;;29.20;75.20;;;;;;5056455;28;20500;-76
2022/09/13 11:54:28;;;;;;;1.43;0.80;;;29.00;74.70;;;;;;5058006;28;20532;-74
2022/09/13 11:57:04;;;;;;;1.47;0.80;;;29.20;74.60;;;;;;5058819;28;20477;-74
2022/09/13 12:00:07;;;;;;;1.43;0.80;;;29.30;75.10;;;;;;5064099;28;20461;-75
2022/09/13 12:02:43;;;;;;;1.50;0.80;;;29.60;75.30;;;;;;5034405;28;20486;-73
2022/09/13 12:05:20;;;;;;;1.43;0.80;;;29.90;74.90;;;;;;5050367;28;20481;-74
2022/09/13 12:07:55;;;;;;;1.50;0.80;;;30.10;72.80;;;;;;5056797;28;20511;-74
2022/09/13 12:10:33;;;;;;;1.47;0.80;;;30.40;74.50;;;;;;5055363;28;21111;-75
2022/09/13 12:13:08;;;;;;;1.57;1.00;;;30.60;73.30;;;;;;5055271;28;21012;-75
2022/09/13 12:15:51;;;;;;;1.43;0.80;;;30.80;72.50;;;;;;5054357;28;20476;-74
2022/09/13 12:21:55;;;;;;;1.47;0.80;;;30.90;71.40;;;;;;5052051;28;20480;-75
2022/09/13 12:27:50;;;;;;;1.43;0.80;;;30.60;71.20;;;;;;5052744;28;20476;-75
2022/09/13 12:30:27;;;;;;;1.43;0.80;;;30.60;70.90;;;;;;5060544;28;20859;-75
2022/09/13 12:33:35;;;;;;;1.43;0.80;;;30.70;71.70;;;;;;5062371;28;20561;-75
2022/09/13 12:36:28;;;;;;;1.47;0.80;;;30.80;72.40;;;;;;5048432;28;20458;-76
2022/09/13 12:39:41;;;;;;;1.43;0.80;;;30.80;71.10;;;;;;5068914;28;20490;-74
2022/09/13 12:42:47;;;;;;;1.50;0.80;;;31.00;71.20;;;;;;5049770;28;20495;-76
2022/09/13 12:46:03;;;;;;;1.50;0.80;;;31.00;71.40;;;;;;5057444;28;21217;-75
2022/09/13 12:52:22;;;;;;;1.50;0.80;;;31.00;71.70;;;;;;5015534;28;20478;-75
2022/09/13 12:55:32;;;;;;;1.50;0.80;;;31.10;68.60;;;;;;5047095;28;20486;-75
2022/09/13 12:58:25;;;;;;;1.47;0.80;;;31.20;69.30;;;;;;5045650;28;20503;-74
2022/09/13 13:01:09;;;;;;;1.47;0.80;;;31.10;70.40;;;;;;5024726;28;20489;-74
2022/09/13 13:04:43;;;;;;;;;;;;;;;;;;;;;
2022/09/13 13:07:23;;;;;;;1.47;0.80;;;31.30;71.70;;;;;;4996698;28;20484;-75
2022/09/13 13:09:53;;;;;;;1.43;0.80;;;31.50;69.50;;;;;;5047666;28;20485;-74
2022/09/13 13:12:49;;;;;;;1.43;0.87;;;31.50;69.30;;;;;;5057531;28;20480;-74
2022/09/13 13:15:56;;;;;;;1.47;0.80;;;31.50;69.40;;;;;;5056399;28;20559;-75
2022/09/13 13:21:30;;;;;;;1.47;0.80;;;31.70;68.90;;;;;;5051177;28;20507;-75
2022/09/13 13:24:40;;;;;;;1.50;0.80;;;31.60;68.30;;;;;;5065531;28;20492;-73
2022/09/13 13:27:53;;;;;;;1.40;0.80;;;31.50;69.60;;;;;;5056730;28;20565;-75
2022/09/13 13:31:02;;;;;;;1.43;0.80;;;31.40;67.40;;;;;;5055991;28;20489;-74
2022/09/13 13:33:47;;;;;;;1.47;0.90;;;31.40;68.90;;;;;;5049574;28;20573;-74
2022/09/13 13:36:28;;;;;;;1.47;0.80;;;31.30;69.90;;;;;;5044669;28;20487;-75
2022/09/13 13:39:09;;;;;;;1.47;0.80;;;31.40;69.00;;;;;;5060630;28;20858;-75
2022/09/13 13:42:08;;;;;;;1.43;0.80;;;31.30;69.70;;;;;;5050318;28;20557;-74
2022/09/13 13:45:23;;;;;;;1.47;0.80;;;31.10;68.80;;;;;;5059101;28;20482;-74
2022/09/13 13:48:14;;;;;;;1.47;0.83;;;30.90;69.50;;;;;;5055404;28;20508;-73
2022/09/13 13:51:30;;;;;;;1.47;0.80;;;30.70;70.20;;;;;;5062023;28;20494;-75
2022/09/13 13:54:10;;;;;;;1.47;0.80;;;30.40;69.60;;;;;;5037406;28;20467;-75
2022/09/13 13:56:50;;;;;;;1.50;0.80;;;30.10;72.20;;;;;;5053686;28;20477;-74
2022/09/13 13:59:23;;;;;;;1.50;1.00;;;30.00;73.00;;;;;;5069024;28;20493;-74
2022/09/13 14:02:01;;;;;;;1.43;0.80;;;30.00;73.00;;;;;;5059055;28;20495;-75
2022/09/13 14:05:00;;;;;;;1.43;0.80;;;30.10;72.80;;;;;;5066095;28;20485;-73
2022/09/13 14:08:04;;;;;;;1.43;0.80;;;30.20;72.60;;;;;;5045490;28;20493;-75
2022/09/13 14:10:42;;;;;;;1.40;0.80;;;30.30;72.90;;;;;;5056408;28;20517;-74
2022/09/13 14:13:34;;;;;;;1.43;0.80;;;30.40;70.40;;;;;;5056060;28;20496;-74
2022/09/13 14:16:17;;;;;;;1.50;0.80;;;30.50;71.30;;;;;;5041446;28;20465;-76
2022/09/13 14:19:22;;;;;;;1.50;0.80;;;30.50;70.70;;;;;;5047943;28;20485;-76
2022/09/13 14:22:14;;;;;;;1.47;0.80;;;30.50;71.30;;;;;;5057737;28;20477;-76
2022/09/13 14:24:45;;;;;;;1.43;0.80;;;30.40;70.00;;;;;;5059188;28;20484;-74
2022/09/13 14:27:31;;;;;;;1.43;0.87;;;30.30;71.50;;;;;;5053415;28;20489;-75
2022/09/13 14:30:03;;;;;;;1.50;0.80;;;30.20;71.30;;;;;;5061253;28;20478;-76
2022/09/13 14:32:44;;;;;;;1.40;0.90;;;30.20;72.90;;;;;;5058544;28;20493;-75
2022/09/13 14:35:26;;;;;;;1.43;0.80;;;30.20;71.40;;;;;;5057963;28;20485;-76
2022/09/13 14:37:56;;;;;;;1.43;0.80;;;30.40;71.80;;;;;;5066476;28;21352;-75
2022/09/13 14:40:26;;;;;;;1.43;0.80;;;30.40;72.00;;;;;;5063036;28;20466;-75
2022/09/13 14:43:18;;;;;;;1.43;0.80;;;30.40;70.70;;;;;;5068036;28;20519;-75
2022/09/13 14:45:49;;;;;;;1.43;0.80;;;30.30;71.80;;;;;;5060099;28;20487;-76
2022/09/13 14:48:31;;;;;;;1.43;0.80;;;30.20;72.10;;;;;;5049385;28;20459;-74
2022/09/13 14:51:03;;;;;;;1.43;0.80;;;30.20;72.30;;;;;;5052620;28;20485;-74
2022/09/13 14:53:55;;;;;;;1.50;0.90;;;30.20;72.20;;;;;;5070965;28;20531;-76
2022/09/13 14:56:41;;;;;;;1.47;0.80;;;30.20;72.30;;;;;;5051502;28;20587;-75
2022/09/13 14:59:23;;;;;;;1.43;0.80;;;30.10;72.50;;;;;;5076132;28;20462;-75
2022/09/13 15:01:58;;;;;;;1.40;0.80;;;30.20;73.00;;;;;;5062025;28;20476;-74
2022/09/13 15:04:27;;;;;;;1.50;0.90;;;30.40;72.70;;;;;;5066479;28;20495;-73
2022/09/13 15:07:08;;;;;;;1.43;0.80;;;30.60;72.90;;;;;;5041647;28;20484;-73
2022/09/13 15:09:41;;;;;;;1.47;0.80;;;30.80;71.60;;;;;;5059332;28;20488;-75
2022/09/13 15:12:27;;;;;;;1.40;0.80;;;30.90;70.90;;;;;;5056623;28;20958;-75
2022/09/13 15:15:35;;;;;;;1.43;0.80;;;30.80;69.60;;;;;;5060599;28;20525;-74
2022/09/13 15:18:39;;;;;;;1.47;0.80;;;30.60;70.90;;;;;;5068126;28;20908;-75
2022/09/13 15:32:19;;;;;;;1.43;0.90;;;29.60;72.70;;;;;;5036205;28;20553;-75
2022/09/13 15:35:37;;;;;;;;;;;;;;;;;;;;;
2022/09/13 15:38:34;;;;;;;1.50;0.90;;;29.20;73.90;;;;;;4911292;28;21085;-75
2022/09/13 15:41:16;;;;;;;1.43;0.80;;;28.90;75.20;;;;;;4956428;28;20509;-77
2022/09/13 15:46:31;;;;;;;1.47;0.80;;;28.60;74.80;;;;;;5074434;22;20486;-75
2022/09/13 15:49:21;;;;;;;1.47;0.80;;;28.40;75.50;;;;;;5032841;28;20455;-76
2022/09/13 15:52:05;;;;;;;1.47;0.83;;;28.30;75.10;;;;;;5017285;28;20482;-77
2022/09/13 15:54:43;;;;;;;1.47;0.80;;;28.10;75.60;;;;;;5030281;28;20905;-76
2022/09/13 16:11:14;;;;;;;1.40;0.90;;;27.50;78.70;;;;;;4935371;29;20582;-74
2022/09/13 16:17:00;;;;;;;1.43;0.90;;;27.30;80.30;;;;;;4833627;26;21202;-76
2022/09/13 16:19:32;;;;;;;1.50;0.90;;;27.20;81.50;;;;;;5018923;28;20470;-75
2022/09/13 16:22:32;;;;;;;1.50;0.80;;;27.10;82.50;;;;;;5017816;28;20487;-75
2022/09/13 16:27:29;;;;;;;1.50;0.90;;;26.90;85.20;;;;;;5019930;28;20570;-74